Time;durP1;ratioP1;P1;durP2;ratioP2;P2;SDS_P1;SDS_P2;PMS_P1;PMS_P2;Temp;Humidity;BMP_temperature;BMP_pressure;BME280_temperature;BME280_humidity;BME280_pressure;Samples;Min_cycle;Max_cycle;Signal;HPM_P1;HPM_P2
2022/06/09 00:00:41;;;;;;;4.88;2.25;;;13.20;99.90;;;;;;5085690;28;20048;-72
2022/06/09 00:03:15;;;;;;;5.00;2.10;;;13.20;99.90;;;;;;5085917;28;20042;-71
2022/06/09 00:05:43;;;;;;;3.97;2.00;;;13.20;99.90;;;;;;5094669;28;20565;-71
2022/06/09 00:08:10;;;;;;;;;;;13.10;99.90;;;;;;5092237;28;20048;-72
2022/06/09 00:10:42;;;;;;;3.65;1.88;;;13.00;99.90;;;;;;5082425;28;20300;-72
2022/06/09 00:13:10;;;;;;;3.20;1.48;;;13.00;99.90;;;;;;5094096;28;20078;-71
2022/06/09 00:15:37;;;;;;;2.22;1.67;;;13.00;99.90;;;;;;5094067;28;20495;-71
2022/06/09 00:18:03;;;;;;;3.05;1.70;;;12.90;99.90;;;;;;5085213;28;20085;-71
2022/06/09 00:20:30;;;;;;;4.45;1.60;;;12.90;99.90;;;;;;5085233;28;20423;-72
2022/06/09 00:22:57;;;;;;;3.83;1.30;;;12.90;99.90;;;;;;5094055;28;20048;-71
2022/06/09 00:25:24;;;;;;;3.65;1.40;;;12.90;99.90;;;;;;5089744;28;20118;-71
2022/06/09 00:27:51;;;;;;;3.38;1.90;;;12.90;99.90;;;;;;5085528;28;20059;-72
2022/06/09 00:30:18;;;;;;;2.75;1.45;;;12.90;99.90;;;;;;5093091;28;20052;-72
2022/06/09 00:32:45;;;;;;;4.15;1.38;;;12.90;99.90;;;;;;5092717;28;20039;-69
2022/06/09 00:35:13;;;;;;;3.33;1.60;;;12.90;99.90;;;;;;5088176;28;20639;-71
2022/06/09 00:37:40;;;;;;;2.10;1.80;;;12.90;99.90;;;;;;5091256;28;20048;-71
2022/06/09 00:40:10;;;;;;;3.63;2.35;;;12.80;99.90;;;;;;5093132;28;20051;-71
2022/06/09 00:42:37;;;;;;;3.67;2.38;;;12.80;99.90;;;;;;5091454;28;20056;-71
2022/06/09 00:45:31;;;;;;;3.40;1.88;;;12.80;99.90;;;;;;5086029;28;20044;-69
2022/06/09 00:48:19;;;;;;;5.85;1.67;;;12.80;99.90;;;;;;5093746;28;20094;-69
2022/06/09 00:50:50;;;;;;;2.88;1.80;;;12.90;99.90;;;;;;5091073;28;20576;-71
2022/06/09 00:53:23;;;;;;;5.07;1.83;;;12.80;99.90;;;;;;5085386;28;20039;-71
2022/06/09 00:55:52;;;;;;;4.13;1.65;;;12.90;99.90;;;;;;5093411;28;20040;-71
2022/06/09 00:58:22;;;;;;;3.38;1.50;;;12.80;99.90;;;;;;5093094;28;20047;-71
2022/06/09 01:00:57;;;;;;;3.28;1.40;;;12.80;99.90;;;;;;5071938;28;20089;-72
2022/06/09 01:03:27;;;;;;;4.47;1.65;;;12.80;99.90;;;;;;5070482;28;20059;-70
2022/06/09 01:09:26;;;;;;;1.50;1.30;;;12.70;99.90;;;;;;5087469;28;20044;-69
2022/06/09 01:11:55;;;;;;;4.70;1.77;;;12.80;99.90;;;;;;5092779;28;20044;-70
2022/06/09 01:14:26;;;;;;;2.05;1.40;;;12.70;99.90;;;;;;5093144;28;20039;-68
2022/06/09 01:17:07;;;;;;;4.35;1.83;;;12.70;99.90;;;;;;5101474;28;20526;-69
2022/06/09 01:20:01;;;;;;;3.15;1.77;;;12.70;99.90;;;;;;5094157;28;20049;-69
2022/06/09 01:22:47;;;;;;;4.13;2.47;;;12.80;99.90;;;;;;5101483;28;20462;-69
2022/06/09 01:25:35;;;;;;;4.35;2.20;;;12.80;99.90;;;;;;5101246;28;20063;-69
2022/06/09 01:28:44;;;;;;;4.63;2.70;;;12.80;99.90;;;;;;5092896;28;20051;-69
2022/06/09 01:31:18;;;;;;;3.65;2.10;;;12.70;99.90;;;;;;5092508;28;20047;-69
2022/06/09 01:33:58;;;;;;;1.95;1.70;;;12.70;99.90;;;;;;5095137;28;20816;-70
2022/06/09 01:36:27;;;;;;;4.18;1.40;;;12.60;99.90;;;;;;5101131;28;20051;-69
2022/06/09 01:38:57;;;;;;;3.05;1.25;;;12.60;99.90;;;;;;5092826;28;20399;-70
2022/06/09 01:41:25;;;;;;;1.50;1.15;;;12.60;99.90;;;;;;5092415;28;20051;-70
2022/06/09 01:43:54;;;;;;;2.08;1.70;;;12.70;99.90;;;;;;5099878;28;20492;-69
2022/06/09 01:46:27;;;;;;;2.58;1.55;;;12.70;99.90;;;;;;5097402;28;20043;-69
2022/06/09 01:48:57;;;;;;;4.18;1.83;;;12.60;99.90;;;;;;5092717;28;20048;-69
2022/06/09 01:51:26;;;;;;;2.05;1.50;;;12.60;99.90;;;;;;5093888;28;20048;-69
2022/06/09 01:54:05;;;;;;;2.70;2.30;;;12.60;99.90;;;;;;5101492;28;20081;-69
2022/06/09 01:56:49;;;;;;;6.75;3.10;;;12.60;99.90;;;;;;5092276;28;20048;-69
2022/06/09 01:59:28;;;;;;;5.28;3.80;;;12.60;99.90;;;;;;5092374;28;20101;-69
2022/06/09 02:02:00;;;;;;;8.30;3.90;;;12.50;99.90;;;;;;5100296;28;20039;-69
2022/06/09 02:04:51;;;;;;;11.30;5.00;;;12.50;99.90;;;;;;5096354;28;20113;-68
2022/06/09 02:07:20;;;;;;;4.10;3.45;;;12.60;99.90;;;;;;5092364;28;20055;-69
2022/06/09 02:09:47;;;;;;;6.30;3.63;;;12.60;99.90;;;;;;5095377;28;20040;-69
2022/06/09 02:12:16;;;;;;;3.90;2.95;;;12.60;99.90;;;;;;5097820;28;20044;-69
2022/06/09 02:14:49;;;;;;;4.68;3.03;;;12.60;99.90;;;;;;5091910;28;20048;-69
2022/06/09 02:17:17;;;;;;;3.53;3.22;;;12.60;99.90;;;;;;5091939;28;20052;-69
2022/06/09 02:19:45;;;;;;;4.75;3.10;;;12.60;99.90;;;;;;5101900;28;20126;-69
2022/06/09 02:22:14;;;;;;;4.32;3.40;;;12.60;99.90;;;;;;5090774;28;20036;-69
2022/06/09 02:24:41;;;;;;;3.47;2.78;;;12.60;99.90;;;;;;5107557;28;20044;-69
2022/06/09 02:27:07;;;;;;;4.13;2.97;;;12.60;99.90;;;;;;5098628;28;20085;-69
2022/06/09 02:29:34;;;;;;;5.38;3.08;;;12.60;99.90;;;;;;5100287;28;20043;-69
2022/06/09 02:32:02;;;;;;;4.35;3.38;;;12.60;99.90;;;;;;5091505;28;20070;-69
2022/06/09 02:34:28;;;;;;;4.75;3.13;;;12.60;99.90;;;;;;5091802;28;20044;-69
2022/06/09 02:36:57;;;;;;;5.32;3.00;;;12.60;99.90;;;;;;5100832;28;20503;-69
2022/06/09 02:39:23;;;;;;;5.10;2.63;;;12.60;99.90;;;;;;5096459;28;20085;-69
2022/06/09 02:41:50;;;;;;;5.03;2.72;;;12.60;99.90;;;;;;5091388;28;20039;-69
2022/06/09 02:44:17;;;;;;;4.15;3.17;;;12.60;99.90;;;;;;5097148;28;20092;-69
2022/06/09 02:46:43;;;;;;;4.50;3.43;;;12.60;99.90;;;;;;5101584;28;20043;-69
2022/06/09 02:49:10;;;;;;;7.43;3.53;;;12.60;99.90;;;;;;5091741;28;20282;-69
2022/06/09 02:51:40;;;;;;;12.57;3.80;;;12.60;99.90;;;;;;5091335;28;20097;-69
2022/06/09 02:54:10;;;;;;;7.05;3.47;;;12.60;99.90;;;;;;5096775;28;20043;-69
2022/06/09 02:56:37;;;;;;;5.40;4.03;;;12.60;99.90;;;;;;5099964;28;20070;-68
2022/06/09 02:59:04;;;;;;;6.05;3.40;;;12.60;99.90;;;;;;5091589;28;20040;-69
2022/06/09 03:01:31;;;;;;;6.63;4.13;;;12.70;99.90;;;;;;5091033;28;20093;-69
2022/06/09 03:03:58;;;;;;;6.07;3.25;;;12.70;99.90;;;;;;5101407;28;20047;-69
2022/06/09 03:06:25;;;;;;;5.57;3.00;;;12.70;99.90;;;;;;5095779;28;20048;-69
2022/06/09 03:08:52;;;;;;;5.72;3.65;;;12.70;99.90;;;;;;5091471;28;20105;-69
2022/06/09 03:11:18;;;;;;;3.45;2.72;;;12.70;99.90;;;;;;5100412;28;20040;-69
2022/06/09 03:13:46;;;;;;;4.55;3.00;;;12.70;99.90;;;;;;5089911;28;20056;-69
2022/06/09 03:16:14;;;;;;;6.30;3.47;;;12.70;99.90;;;;;;5107743;28;20043;-69
2022/06/09 03:18:43;;;;;;;7.53;3.20;;;12.70;99.90;;;;;;5109158;28;20131;-69
2022/06/09 03:21:11;;;;;;;4.93;3.90;;;12.60;99.90;;;;;;5099580;28;20400;-70
2022/06/09 03:23:38;;;;;;;3.47;3.17;;;12.70;99.90;;;;;;5091349;28;20488;-69
2022/06/09 03:26:06;;;;;;;3.75;2.95;;;12.60;99.90;;;;;;5091146;28;20450;-70
2022/06/09 03:28:34;;;;;;;4.65;3.20;;;12.70;99.90;;;;;;5098396;28;20040;-69
2022/06/09 03:31:00;;;;;;;8.20;3.28;;;12.70;99.90;;;;;;5098745;28;20044;-69
2022/06/09 03:33:28;;;;;;;5.40;2.95;;;12.70;99.90;;;;;;5093047;28;20637;-69
2022/06/09 03:35:54;;;;;;;5.13;3.53;;;12.70;99.90;;;;;;5097605;28;20044;-69
2022/06/09 03:38:21;;;;;;;4.20;3.05;;;12.70;99.90;;;;;;5103545;28;20097;-70
2022/06/09 03:40:48;;;;;;;6.50;3.38;;;12.70;99.90;;;;;;5094732;28;20128;-69
2022/06/09 03:43:15;;;;;;;2.72;2.53;;;12.70;99.90;;;;;;5094918;28;20093;-69
2022/06/09 03:45:42;;;;;;;3.92;2.47;;;12.70;99.90;;;;;;5097654;28;20096;-69
2022/06/09 03:48:08;;;;;;;5.60;2.75;;;12.70;99.90;;;;;;5103368;28;20463;-70
2022/06/09 03:50:35;;;;;;;2.67;2.45;;;12.70;99.90;;;;;;5094457;28;20044;-70
2022/06/09 03:53:02;;;;;;;2.80;1.98;;;12.70;99.90;;;;;;5094947;28;20044;-70
2022/06/09 03:55:30;;;;;;;5.80;2.42;;;12.70;99.90;;;;;;5098086;28;20040;-69
2022/06/09 03:57:56;;;;;;;3.10;2.78;;;12.70;99.90;;;;;;5103107;28;20496;-70
2022/06/09 04:00:27;;;;;;;4.55;3.15;;;12.70;99.90;;;;;;5094511;28;20044;-69
2022/06/09 04:02:54;;;;;;;8.68;3.03;;;12.70;99.90;;;;;;5095548;28;20040;-70
2022/06/09 04:05:21;;;;;;;4.13;3.28;;;12.80;99.90;;;;;;5102654;28;20040;-70
2022/06/09 04:07:48;;;;;;;;;;;12.80;99.90;;;;;;5094938;28;20085;-70
2022/06/09 04:10:19;;;;;;;8.60;4.20;;;12.80;99.90;;;;;;5094181;28;19981;-70
2022/06/09 04:12:46;;;;;;;4.55;3.65;;;12.80;99.90;;;;;;5102175;28;20051;-70
2022/06/09 04:15:14;;;;;;;6.13;3.90;;;12.80;99.90;;;;;;5102723;28;20485;-70
2022/06/09 04:17:41;;;;;;;6.35;3.60;;;12.80;99.90;;;;;;5114043;28;20036;-69
2022/06/09 04:20:09;;;;;;;3.15;2.55;;;12.80;99.90;;;;;;5114398;28;20039;-70
2022/06/09 04:22:36;;;;;;;3.55;1.52;;;12.80;99.90;;;;;;5102164;28;20047;-70
2022/06/09 04:25:04;;;;;;;3.67;1.75;;;12.80;99.90;;;;;;5101696;28;20044;-70
2022/06/09 04:27:30;;;;;;;4.03;1.50;;;12.80;99.90;;;;;;5093935;28;20085;-70
2022/06/09 04:29:57;;;;;;;7.30;2.30;;;12.90;99.90;;;;;;5095432;28;20040;-70
2022/06/09 04:32:24;;;;;;;6.40;2.45;;;12.90;99.90;;;;;;5105932;28;20043;-70
2022/06/09 04:34:51;;;;;;;5.38;2.63;;;12.90;99.90;;;;;;5094553;28;20040;-70
2022/06/09 04:37:18;;;;;;;4.07;2.15;;;12.90;99.90;;;;;;5111633;28;20051;-70
2022/06/09 04:39:45;;;;;;;5.53;2.42;;;13.00;99.90;;;;;;5103852;28;20059;-70
2022/06/09 04:42:12;;;;;;;5.28;1.60;;;13.00;99.90;;;;;;5102812;28;20051;-70
2022/06/09 04:44:38;;;;;;;6.82;2.05;;;13.10;99.90;;;;;;5106384;28;20054;-68
2022/06/09 04:47:05;;;;;;;6.45;1.77;;;13.10;99.90;;;;;;5110983;28;20051;-70
2022/06/09 04:49:32;;;;;;;6.40;2.53;;;13.10;99.90;;;;;;5112167;28;20039;-70
2022/06/09 04:51:59;;;;;;;4.60;2.30;;;13.10;99.90;;;;;;5113454;28;20065;-70
2022/06/09 04:54:25;;;;;;;5.00;2.00;;;13.10;99.90;;;;;;5113844;28;20043;-70
2022/06/09 04:56:52;;;;;;;3.72;2.10;;;13.10;99.90;;;;;;5113013;28;20110;-69
2022/06/09 04:59:19;;;;;;;3.92;1.90;;;13.10;99.90;;;;;;5105402;28;20035;-70
2022/06/09 05:01:46;;;;;;;1.83;1.20;;;13.10;99.90;;;;;;5107814;28;20062;-71
2022/06/09 05:04:14;;;;;;;1.92;1.48;;;13.10;99.90;;;;;;5110587;28;20051;-70
2022/06/09 05:06:41;;;;;;;2.97;1.60;;;13.20;99.90;;;;;;5099573;28;20047;-70
2022/06/09 05:09:07;;;;;;;2.75;1.90;;;13.10;99.90;;;;;;5108657;28;20108;-70
2022/06/09 05:11:34;;;;;;;5.38;2.85;;;13.10;99.90;;;;;;5110391;28;20039;-70
2022/06/09 05:14:01;;;;;;;5.95;3.60;;;13.20;99.90;;;;;;5110644;28;20047;-70
2022/06/09 05:16:28;;;;;;;4.53;3.58;;;13.20;99.90;;;;;;5108947;28;20039;-70
2022/06/09 05:18:54;;;;;;;6.97;2.80;;;13.20;99.90;;;;;;5110239;28;20047;-70
2022/06/09 05:21:21;;;;;;;5.03;3.97;;;13.10;99.90;;;;;;5110256;28;20434;-70
2022/06/09 05:23:48;;;;;;;5.03;3.35;;;13.20;99.90;;;;;;5109745;28;20043;-70
2022/06/09 05:26:16;;;;;;;5.38;3.92;;;13.10;99.90;;;;;;5109034;28;20040;-70
2022/06/09 05:28:43;;;;;;;5.88;4.50;;;13.00;99.90;;;;;;5110295;28;20059;-70
2022/06/09 05:31:10;;;;;;;6.38;4.00;;;13.10;99.90;;;;;;5107180;28;20085;-70
2022/06/09 05:33:37;;;;;;;7.63;4.35;;;13.10;99.90;;;;;;5108666;28;20039;-70
2022/06/09 05:36:04;;;;;;;6.60;3.80;;;13.10;99.90;;;;;;5111316;28;20027;-69
2022/06/09 05:46:48;;;;;;;9.13;3.83;;;13.10;99.90;;;;;;5109535;28;20093;-69
2022/06/09 05:49:16;;;;;;;3.97;2.83;;;13.10;99.90;;;;;;5112589;28;20101;-69
2022/06/09 05:51:43;;;;;;;3.10;2.22;;;13.00;99.90;;;;;;5109920;28;20442;-69
2022/06/09 05:54:10;;;;;;;;;;;13.00;99.90;;;;;;5101209;28;20077;-68
2022/06/09 05:56:37;;;;;;;3.15;2.22;;;13.00;99.90;;;;;;5105431;28;19923;-69
2022/06/09 05:59:04;;;;;;;;;;;13.00;99.90;;;;;;5110260;28;20039;-69
2022/06/09 06:01:31;;;;;;;5.50;2.45;;;13.10;99.90;;;;;;5110792;28;20280;-69
2022/06/09 06:03:58;;;;;;;4.80;3.15;;;13.10;99.90;;;;;;5100357;28;20043;-69
2022/06/09 06:06:34;;;;;;;4.93;3.10;;;13.00;99.90;;;;;;5112449;28;20413;-69
2022/06/09 06:09:17;;;;;;;6.32;3.88;;;13.00;99.90;;;;;;5106703;28;20048;-69
2022/06/09 06:11:46;;;;;;;4.30;3.50;;;13.10;99.90;;;;;;5102479;28;20092;-69
2022/06/09 06:14:14;;;;;;;6.80;4.65;;;13.00;99.90;;;;;;5103932;28;20039;-69
2022/06/09 06:16:41;;;;;;;5.55;4.28;;;13.10;99.90;;;;;;5109145;28;20044;-69
2022/06/09 06:19:10;;;;;;;6.72;5.03;;;13.10;99.90;;;;;;5099636;28;20065;-69
2022/06/09 06:21:38;;;;;;;8.15;5.55;;;13.10;99.90;;;;;;5094388;28;20105;-68
2022/06/09 06:24:08;;;;;;;5.95;4.50;;;13.10;99.90;;;;;;5092061;28;20048;-69
2022/06/09 06:26:35;;;;;;;5.65;4.05;;;13.20;99.90;;;;;;5101017;28;20035;-69
2022/06/09 06:29:04;;;;;;;7.70;5.00;;;13.20;99.90;;;;;;5100434;28;20073;-69
2022/06/09 06:31:31;;;;;;;5.07;4.30;;;13.20;99.90;;;;;;5106551;28;20044;-69
2022/06/09 06:33:58;;;;;;;6.97;4.32;;;13.20;99.90;;;;;;5112206;28;20043;-70
2022/06/09 06:36:25;;;;;;;4.63;3.95;;;13.20;99.90;;;;;;5099407;28;20043;-69
2022/06/09 06:38:52;;;;;;;8.85;4.53;;;13.20;99.90;;;;;;5100353;28;20044;-69
2022/06/09 06:41:18;;;;;;;5.22;3.72;;;13.20;99.90;;;;;;5102757;28;20044;-69
2022/06/09 06:43:48;;;;;;;8.88;3.72;;;13.30;99.90;;;;;;5102776;28;20044;-69
2022/06/09 06:46:16;;;;;;;4.82;4.10;;;13.30;99.90;;;;;;5098917;28;20449;-69
2022/06/09 06:48:45;;;;;;;7.78;4.47;;;13.30;99.90;;;;;;5093269;28;20484;-69
2022/06/09 06:51:12;;;;;;;7.25;3.13;;;13.30;99.90;;;;;;5089949;28;20032;-69
2022/06/09 06:53:39;;;;;;;9.07;4.00;;;13.30;99.90;;;;;;5097804;28;20044;-69
2022/06/09 06:56:07;;;;;;;;;;;13.40;99.90;;;;;;5108847;28;20088;-69
2022/06/09 06:58:34;;;;;;;5.45;3.40;;;13.30;99.90;;;;;;5111708;28;20437;-69
2022/06/09 07:01:02;;;;;;;6.05;3.40;;;13.30;99.90;;;;;;5093218;28;20081;-69
2022/06/09 07:03:29;;;;;;;3.38;3.08;;;13.40;99.90;;;;;;5096846;28;20051;-69
2022/06/09 07:10:21;;;;;;;4.03;3.05;;;13.40;99.90;;;;;;5109331;27;20077;-66
2022/06/09 07:12:52;;;;;;;3.28;2.78;;;13.40;99.90;;;;;;5101527;27;20122;-66
2022/06/09 07:15:18;;;;;;;5.03;3.45;;;13.40;99.90;;;;;;5118677;27;20043;-66
2022/06/09 07:17:45;;;;;;;3.85;3.03;;;13.50;99.90;;;;;;5115757;28;20039;-66
2022/06/09 07:20:13;;;;;;;4.07;2.75;;;13.60;99.90;;;;;;5115199;28;20078;-67
2022/06/09 07:22:40;;;;;;;2.45;2.25;;;13.70;99.90;;;;;;5114327;28;20426;-67
2022/06/09 07:25:08;;;;;;;;;;;13.80;99.90;;;;;;5116030;28;20459;-66
2022/06/09 07:27:35;;;;;;;5.00;2.72;;;13.90;99.90;;;;;;5115051;28;19949;-66
2022/06/09 07:30:03;;;;;;;3.05;2.42;;;14.00;99.90;;;;;;5114567;27;20491;-67
2022/06/09 07:32:29;;;;;;;3.38;2.13;;;14.10;99.90;;;;;;5119257;27;20093;-67
2022/06/09 07:34:56;;;;;;;3.00;2.08;;;14.10;99.90;;;;;;5115481;28;20129;-66
2022/06/09 07:37:23;;;;;;;4.07;2.10;;;14.10;99.90;;;;;;5114982;28;20047;-66
2022/06/09 07:39:50;;;;;;;3.97;1.60;;;14.10;99.90;;;;;;5115236;27;20046;-67
2022/06/09 07:42:16;;;;;;;2.13;1.83;;;14.10;99.90;;;;;;5115000;28;20036;-67
2022/06/09 07:44:44;;;;;;;3.33;1.73;;;14.00;99.90;;;;;;5115236;28;20044;-67
2022/06/09 07:47:10;;;;;;;2.15;1.50;;;14.00;99.90;;;;;;5114466;28;20046;-66
2022/06/09 07:49:37;;;;;;;1.38;1.27;;;14.00;99.90;;;;;;5113870;28;20503;-67
2022/06/09 07:52:04;;;;;;;1.70;1.60;;;14.00;99.90;;;;;;5115040;28;20059;-67
2022/06/09 07:54:31;;;;;;;2.78;1.65;;;14.00;99.90;;;;;;5114780;28;20047;-67
2022/06/09 07:56:58;;;;;;;1.50;1.40;;;14.10;99.90;;;;;;5114918;28;20503;-67
2022/06/09 07:59:25;;;;;;;2.10;1.58;;;14.10;99.90;;;;;;5113228;28;20047;-68
2022/06/09 08:01:51;;;;;;;3.45;1.60;;;14.10;99.90;;;;;;5113587;28;20492;-68
2022/06/09 08:04:25;;;;;;;1.92;1.75;;;14.20;99.90;;;;;;5114766;28;20051;-68
2022/06/09 08:06:52;;;;;;;4.93;1.75;;;14.20;99.90;;;;;;5114695;28;20077;-68
2022/06/09 08:09:19;;;;;;;3.53;1.90;;;14.20;99.90;;;;;;5113076;28;20511;-68
2022/06/09 08:11:47;;;;;;;1.73;1.63;;;14.10;99.90;;;;;;5114111;28;20052;-69
2022/06/09 08:14:15;;;;;;;4.07;1.85;;;14.00;99.90;;;;;;5114580;28;20047;-68
2022/06/09 08:16:51;;;;;;;2.95;2.22;;;14.00;99.90;;;;;;5113046;28;20043;-68
2022/06/09 08:19:18;;;;;;;6.15;2.38;;;13.90;99.90;;;;;;5114437;28;20047;-69
2022/06/09 08:21:45;;;;;;;4.03;2.08;;;13.90;99.90;;;;;;5113913;28;20043;-68
2022/06/09 08:24:18;;;;;;;19.85;8.90;;;13.90;99.90;;;;;;5114078;28;20044;-68
2022/06/09 08:26:45;;;;;;;10.52;6.38;;;13.90;99.90;;;;;;5112818;28;20035;-68
2022/06/09 08:29:12;;;;;;;10.82;5.57;;;14.00;99.90;;;;;;5114304;28;20047;-68
2022/06/09 08:31:39;;;;;;;5.22;3.28;;;14.00;99.90;;;;;;5113949;28;20376;-68
2022/06/09 08:34:06;;;;;;;;;;;14.10;99.90;;;;;;5114647;28;20169;-69
2022/06/09 08:36:33;;;;;;;9.65;5.82;;;14.00;99.90;;;;;;5112520;28;20432;-68
2022/06/09 08:39:00;;;;;;;6.35;2.30;;;14.10;99.90;;;;;;5113876;28;20040;-68
2022/06/09 08:41:36;;;;;;;2.88;1.80;;;14.10;99.90;;;;;;5113766;28;20645;-69
2022/06/09 08:44:36;;;;;;;1.92;1.33;;;14.10;99.90;;;;;;5112714;28;20433;-68
2022/06/09 08:47:31;;;;;;;2.00;1.33;;;14.00;99.90;;;;;;5106010;28;20044;-68
2022/06/09 08:50:47;;;;;;;1.38;1.17;;;14.10;99.90;;;;;;5113669;28;20048;-68
2022/06/09 08:53:29;;;;;;;2.22;1.95;;;14.10;99.90;;;;;;5091193;28;20055;-68
2022/06/09 08:56:21;;;;;;;3.28;2.40;;;14.20;99.90;;;;;;5105310;28;20048;-68
2022/06/09 08:58:56;;;;;;;5.25;3.22;;;14.10;99.90;;;;;;5101291;28;20059;-68
2022/06/09 09:01:40;;;;;;;12.02;4.03;;;14.30;99.90;;;;;;5111679;28;20381;-68
2022/06/09 09:04:27;;;;;;;5.55;3.00;;;14.10;99.90;;;;;;5106676;28;20043;-68
2022/06/09 09:07:01;;;;;;;5.93;2.60;;;14.20;99.90;;;;;;5113351;28;20044;-68
2022/06/09 09:09:31;;;;;;;2.35;2.15;;;14.30;99.90;;;;;;5113431;28;20032;-68
2022/06/09 09:12:16;;;;;;;2.50;2.20;;;14.30;99.90;;;;;;5111827;28;20048;-68
2022/06/09 09:14:46;;;;;;;4.32;2.65;;;14.30;99.90;;;;;;5113258;28;20492;-69
2022/06/09 09:17:43;;;;;;;3.97;2.40;;;14.30;99.90;;;;;;5111771;28;20458;-68
2022/06/09 09:20:29;;;;;;;4.40;2.50;;;14.30;99.90;;;;;;5108373;28;20492;-68
2022/06/09 09:23:11;;;;;;;3.55;2.50;;;14.30;99.90;;;;;;5104113;28;20050;-68
2022/06/09 09:26:00;;;;;;;3.92;2.25;;;14.30;99.90;;;;;;5113096;28;20039;-68
2022/06/09 09:28:32;;;;;;;;;;;14.20;99.90;;;;;;5112472;28;20434;-68
2022/06/09 09:31:17;;;;;;;3.00;2.47;;;14.10;99.90;;;;;;5098722;28;19927;-68
2022/06/09 09:33:45;;;;;;;3.63;2.13;;;14.10;99.90;;;;;;5112723;28;20044;-68
2022/06/09 09:36:20;;;;;;;3.33;2.08;;;14.10;99.90;;;;;;5111265;28;20084;-68
2022/06/09 09:38:55;;;;;;;4.55;2.50;;;14.20;99.90;;;;;;5112914;28;20445;-68
2022/06/09 09:41:34;;;;;;;3.00;1.88;;;14.10;99.90;;;;;;5112850;28;20101;-69
2022/06/09 09:44:21;;;;;;;4.95;2.83;;;14.10;99.90;;;;;;5094635;28;20442;-68
2022/06/09 09:46:54;;;;;;;4.18;2.53;;;14.20;99.90;;;;;;5111490;28;20385;-69
2022/06/09 09:49:29;;;;;;;5.00;1.83;;;14.10;99.90;;;;;;5112544;28;20104;-69
2022/06/09 09:51:58;;;;;;;3.05;1.63;;;14.20;99.90;;;;;;5112081;28;20500;-68
2022/06/09 09:54:37;;;;;;;1.30;1.10;;;14.30;99.90;;;;;;5111261;28;20039;-68
2022/06/09 09:57:14;;;;;;;3.08;1.35;;;14.30;99.90;;;;;;5104542;28;20040;-68
2022/06/09 09:59:45;;;;;;;2.50;1.00;;;14.30;99.90;;;;;;5111208;28;20032;-68
2022/06/09 10:08:40;;;;;;;1.92;0.82;;;14.30;99.90;;;;;;5092067;28;20516;-68
2022/06/09 10:14:44;;;;;;;1.50;0.77;;;14.20;99.90;;;;;;5107650;28;20424;-68
2022/06/09 10:17:41;;;;;;;2.35;0.60;;;14.20;99.90;;;;;;5112231;28;20487;-69
2022/06/09 10:20:28;;;;;;;2.78;1.23;;;14.40;99.90;;;;;;5109694;28;20039;-69
2022/06/09 10:23:25;;;;;;;1.88;0.80;;;14.40;99.90;;;;;;5111929;28;20439;-69
2022/06/09 10:26:00;;;;;;;2.80;0.88;;;14.40;99.90;;;;;;5068518;28;20056;-68
2022/06/09 10:29:01;;;;;;;2.58;1.15;;;14.30;99.90;;;;;;5092360;28;20036;-69
2022/06/09 10:31:38;;;;;;;1.55;1.10;;;14.30;99.90;;;;;;5107546;28;20487;-68
2022/06/09 10:34:15;;;;;;;2.60;1.40;;;14.30;99.90;;;;;;5112167;28;20039;-68
2022/06/09 10:37:01;;;;;;;4.82;1.65;;;14.30;99.90;;;;;;5118084;27;20473;-68
2022/06/09 10:39:39;;;;;;;2.35;1.70;;;14.50;99.90;;;;;;5111932;28;20054;-69
2022/06/09 10:42:15;;;;;;;2.33;1.30;;;14.60;99.90;;;;;;5110859;28;20097;-69
2022/06/09 10:44:48;;;;;;;3.45;1.05;;;14.70;99.90;;;;;;5110651;28;20036;-69
2022/06/09 10:57:06;;;;;;;2.00;0.80;;;14.80;99.90;;;;;;5111606;28;20031;-69
2022/06/09 10:59:50;;;;;;;2.95;0.70;;;14.80;99.90;;;;;;5111970;28;20039;-69
2022/06/09 11:02:21;;;;;;;2.55;0.77;;;14.80;99.90;;;;;;5101875;28;20047;-69
2022/06/09 11:04:51;;;;;;;1.08;0.68;;;15.00;99.90;;;;;;5111595;28;20043;-68
2022/06/09 11:07:50;;;;;;;2.13;0.52;;;15.00;99.90;;;;;;5111109;28;20439;-69
2022/06/09 11:10:52;;;;;;;0.98;0.60;;;15.10;99.90;;;;;;5108802;28;20040;-69
2022/06/09 11:13:42;;;;;;;1.60;0.75;;;15.20;99.90;;;;;;5106293;28;20104;-69
2022/06/09 11:16:26;;;;;;;2.53;0.90;;;15.20;99.90;;;;;;5110966;28;20043;-69
2022/06/09 11:19:23;;;;;;;0.95;0.80;;;15.00;99.90;;;;;;5107861;28;20392;-69
2022/06/09 11:22:24;;;;;;;3.38;1.00;;;14.80;99.90;;;;;;5109962;28;20105;-68
2022/06/09 11:25:01;;;;;;;8.32;1.10;;;14.60;99.90;;;;;;5090346;28;20039;-68
2022/06/09 11:28:03;;;;;;;3.67;1.27;;;14.50;99.90;;;;;;5109721;28;20488;-68
2022/06/09 11:30:48;;;;;;;4.18;0.93;;;14.30;99.90;;;;;;5107946;28;20042;-68
2022/06/09 11:33:59;;;;;;;1.30;1.08;;;14.20;99.90;;;;;;5109560;28;20066;-68
2022/06/09 11:36:36;;;;;;;4.20;1.23;;;14.10;99.90;;;;;;5071099;28;20055;-68
2022/06/09 11:39:30;;;;;;;2.42;1.30;;;14.00;99.90;;;;;;5109932;28;20059;-68
2022/06/09 11:42:29;;;;;;;2.67;1.40;;;14.10;99.90;;;;;;5108574;28;20089;-68
2022/06/09 11:44:58;;;;;;;4.22;1.42;;;14.30;99.90;;;;;;5107926;28;20055;-68
2022/06/09 11:47:31;;;;;;;2.65;0.95;;;14.50;99.90;;;;;;5110882;28;20426;-68
2022/06/09 11:50:03;;;;;;;1.33;1.08;;;14.60;99.90;;;;;;5108675;28;20039;-68
2022/06/09 11:52:42;;;;;;;3.22;1.40;;;14.60;99.90;;;;;;5092754;28;20039;-68
2022/06/09 11:55:57;;;;;;;3.17;1.40;;;14.40;99.90;;;;;;5112521;28;20184;-68
2022/06/09 11:58:34;;;;;;;3.13;1.42;;;14.40;99.90;;;;;;5112423;28;20411;-68
2022/06/09 12:01:24;;;;;;;8.10;1.75;;;14.30;99.90;;;;;;5111954;28;20400;-68
2022/06/09 12:04:12;;;;;;;3.50;1.50;;;14.30;99.90;;;;;;5113810;28;20499;-68
2022/06/09 12:07:15;;;;;;;4.20;1.90;;;14.40;99.90;;;;;;5112769;28;20039;-68
2022/06/09 12:10:18;;;;;;;4.97;1.92;;;14.60;99.90;;;;;;5113097;28;20050;-68
2022/06/09 12:13:23;;;;;;;7.32;1.80;;;14.60;99.90;;;;;;5114572;27;20130;-68
2022/06/09 12:15:59;;;;;;;6.90;1.70;;;14.70;99.90;;;;;;5113428;28;20052;-68
2022/06/09 12:18:45;;;;;;;2.35;1.15;;;14.80;99.90;;;;;;5114270;28;20036;-68
2022/06/09 12:21:34;;;;;;;2.35;0.70;;;15.00;99.90;;;;;;5112868;28;20048;-68
2022/06/09 12:24:01;;;;;;;1.77;1.10;;;15.20;99.90;;;;;;5106633;28;20040;-68
2022/06/09 12:26:48;;;;;;;4.30;1.38;;;15.30;99.90;;;;;;5114533;28;20044;-68
2022/06/09 12:29:37;;;;;;;1.77;0.90;;;15.50;99.90;;;;;;5114705;28;20430;-68
2022/06/09 12:32:06;;;;;;;2.60;1.20;;;15.60;99.90;;;;;;5102979;28;20048;-67
2022/06/09 12:34:46;;;;;;;1.60;0.52;;;15.60;99.90;;;;;;5114392;28;20100;-68
2022/06/09 12:37:21;;;;;;;2.25;0.73;;;15.70;99.90;;;;;;5113640;28;20047;-68
2022/06/09 12:39:52;;;;;;;2.13;0.63;;;15.80;99.90;;;;;;5113653;27;20047;-68
2022/06/09 12:42:27;;;;;;;1.00;0.60;;;15.80;99.90;;;;;;5113563;28;20407;-68
2022/06/09 12:45:03;;;;;;;1.17;0.50;;;15.90;99.90;;;;;;5113824;28;20043;-68
2022/06/09 12:47:30;;;;;;;2.25;0.75;;;16.10;99.90;;;;;;5110909;28;20160;-68
2022/06/09 12:49:59;;;;;;;1.95;0.60;;;16.10;99.90;;;;;;5112944;28;20089;-68
2022/06/09 12:52:43;;;;;;;2.47;0.70;;;16.10;99.90;;;;;;5111295;28;20040;-68
2022/06/09 12:55:31;;;;;;;3.90;0.75;;;16.30;99.90;;;;;;5110958;28;20090;-68
2022/06/09 12:58:02;;;;;;;2.25;0.70;;;16.30;99.90;;;;;;5113342;28;20929;-68
2022/06/09 13:00:36;;;;;;;10.23;0.52;;;16.40;99.90;;;;;;5111647;28;20061;-68
2022/06/09 13:03:24;;;;;;;1.52;0.70;;;16.40;99.90;;;;;;5109150;28;20082;-69
2022/06/09 13:06:30;;;;;;;2.53;0.55;;;16.40;99.90;;;;;;5115065;22;20052;-67
2022/06/09 13:09:01;;;;;;;2.92;0.70;;;16.40;99.90;;;;;;5072269;28;20454;-67
2022/06/09 13:14:28;;;;;;;3.05;0.80;;;16.00;99.90;;;;;;5061226;28;20037;-67
2022/06/09 13:16:59;;;;;;;4.75;0.80;;;16.10;99.90;;;;;;5069073;28;20048;-67
2022/06/09 13:19:29;;;;;;;1.85;0.80;;;16.00;99.90;;;;;;5076588;28;20052;-67
2022/06/09 13:22:00;;;;;;;1.13;0.80;;;15.90;99.90;;;;;;5061046;28;20040;-67
2022/06/09 13:24:35;;;;;;;3.42;0.90;;;15.70;99.90;;;;;;5054054;28;20386;-67
2022/06/09 13:27:14;;;;;;;2.42;0.93;;;15.60;99.90;;;;;;5074881;28;20032;-67
2022/06/09 13:29:52;;;;;;;2.47;0.95;;;15.50;99.90;;;;;;5077307;28;20123;-68
2022/06/09 13:32:22;;;;;;;5.10;1.23;;;15.50;99.90;;;;;;5075149;28;20044;-68
2022/06/09 13:34:54;;;;;;;2.33;1.17;;;15.30;99.90;;;;;;5076022;28;20501;-68
2022/06/09 13:37:36;;;;;;;4.18;0.85;;;15.30;99.90;;;;;;5067239;28;20036;-67
2022/06/09 13:40:09;;;;;;;1.77;1.00;;;15.30;99.90;;;;;;5060873;28;20040;-68
2022/06/09 13:42:54;;;;;;;3.92;1.10;;;15.20;99.90;;;;;;5064334;28;20052;-67
2022/06/09 13:45:25;;;;;;;1.95;1.00;;;15.30;99.90;;;;;;5068048;28;20040;-68
2022/06/09 13:48:12;;;;;;;1.23;0.50;;;15.50;99.90;;;;;;5063329;28;20047;-68
2022/06/09 13:51:01;;;;;;;1.33;0.83;;;15.50;99.90;;;;;;5062947;28;20658;-68
2022/06/09 13:53:37;;;;;;;1.73;0.85;;;15.60;99.90;;;;;;5065902;28;20061;-67
2022/06/09 13:56:07;;;;;;;2.20;0.70;;;15.50;99.90;;;;;;5064358;28;20040;-67
2022/06/09 13:58:34;;;;;;;5.22;1.27;;;15.40;99.90;;;;;;5064112;28;20050;-68